Time;durP1;ratioP1;P1;durP2;ratioP2;P2;SDS_P1;SDS_P2;PMS_P1;PMS_P2;Temp;Humidity;BMP_temperature;BMP_pressure;BME280_temperature;BME280_humidity;BME280_pressure;Samples;Min_cycle;Max_cycle;Signal;HPM_P1;HPM_P2
2021/09/21 00:01:47;;;;;;;;;14.33;14.00;;;;;7.61;91.81;100127.38;6746864;19;2805376;-54
2021/09/21 00:04:16;;;;;;;;;18.67;14.00;;;;;7.28;93.17;100129.63;6779371;19;2800159;-54
2021/09/21 00:06:45;;;;;;;;;16.80;15.60;;;;;7.26;93.56;100131.50;6804984;19;2822113;-55
2021/09/21 00:09:13;;;;;;;;;15.67;14.00;;;;;7.24;93.64;100128.91;6741931;19;3523046;-54
2021/09/21 00:11:42;;;;;;;;;16.00;14.67;;;;;7.22;92.91;100133.44;6777244;19;3529292;-53
2021/09/21 00:14:10;;;;;;;;;19.33;16.67;;;;;7.14;93.46;100127.53;6776756;19;3562712;-52
2021/09/21 00:16:38;;;;;;;;;14.67;12.00;;;;;7.20;92.99;100131.75;6777838;19;2786774;-54
2021/09/21 00:19:07;;;;;;;;;15.00;14.00;;;;;7.39;92.90;100126.50;6776955;19;2791863;-53
2021/09/21 00:21:35;;;;;;;;;19.33;16.00;;;;;6.97;94.47;100130.84;6775670;19;3557436;-55
2021/09/21 00:24:03;;;;;;;;;16.00;14.00;;;;;7.00;93.79;100136.09;6784270;19;2823083;-52
2021/09/21 00:26:31;;;;;;;;;20.67;16.00;;;;;6.88;94.58;100133.91;6743207;19;3560549;-53
2021/09/21 00:29:00;;;;;;;;;20.00;17.00;;;;;6.84;95.38;100134.94;6778893;19;2821055;-56
2021/09/21 00:31:37;;;;;;;;;19.00;14.00;;;;;6.79;94.96;100143.16;6744783;19;3561634;-52
2021/09/21 00:34:12;;;;;;;;;16.33;16.33;;;;;6.61;95.57;100149.19;6777092;19;3554348;-55
2021/09/21 00:36:42;;;;;;;;;15.20;15.00;;;;;6.55;95.84;100144.06;6807335;19;2806421;-53
2021/09/21 00:39:12;;;;;;;;;19.00;14.60;;;;;6.63;95.72;100149.97;6769444;19;2805372;-55
2021/09/21 00:41:41;;;;;;;;;19.00;17.33;;;;;6.57;96.58;100147.56;6744414;19;3555399;-50
2021/09/21 00:44:10;;;;;;;;;16.33;13.00;;;;;6.48;96.91;100155.91;6743435;19;2799238;-54
2021/09/21 00:46:37;;;;;;;;;19.00;15.00;;;;;6.44;97.05;100146.28;6782117;19;2812706;-52
2021/09/21 00:49:06;;;;;;;;;16.67;16.67;;;;;6.64;96.37;100154.41;6743832;19;3556387;-56
2021/09/21 00:51:34;;;;;;;;;16.50;14.00;;;;;6.63;95.27;100152.63;6783299;19;2809542;-55
2021/09/21 00:54:01;;;;;;;;;13.00;13.00;;;;;6.70;95.38;100153.28;6747601;19;2787660;-53
2021/09/21 00:56:29;;;;;;;;;16.33;15.33;;;;;6.40;94.29;100161.53;6740883;19;2811743;-55
2021/09/21 00:59:01;;;;;;;;;16.67;14.67;;;;;6.52;95.36;100170.84;6774544;19;3545994;-56
2021/09/21 01:01:28;;;;;;;;;7.50;7.50;;;;;6.24;95.17;100166.56;6782583;19;2725214;-52
2021/09/21 01:03:56;;;;;;;;;13.50;13.50;;;;;6.34;96.75;100165.25;6776091;19;2788709;-50
2021/09/21 01:06:24;;;;;;;;;16.00;16.00;;;;;6.27;96.20;100168.25;6750548;19;2813712;-52
2021/09/21 01:08:53;;;;;;;;;18.00;14.40;;;;;6.20;96.75;100169.38;6772580;19;2807463;-53
2021/09/21 01:11:23;;;;;;;;;17.60;17.00;;;;;6.29;96.94;100172.59;6778536;19;2818917;-52
2021/09/21 01:13:51;;;;;;;;;16.00;14.00;;;;;6.22;97.75;100165.72;6749918;19;2800261;-52
2021/09/21 01:16:22;;;;;;;;;20.00;14.00;;;;;6.36;97.25;100171.41;6787203;19;2803374;-52
2021/09/21 01:18:50;;;;;;;;;18.33;13.33;;;;;6.41;96.39;100175.72;6750490;19;3555381;-54
2021/09/21 01:21:22;;;;;;;;;17.33;16.00;;;;;6.40;96.76;100176.63;6785082;19;3542873;-52
2021/09/21 01:23:54;;;;;;;;;7.75;7.00;;;;;6.55;96.44;100181.41;6806192;19;1818990;-53
2021/09/21 01:26:24;;;;;;;;;18.50;12.00;;;;;6.42;96.10;100174.78;6784023;19;2805372;-53
2021/09/21 01:28:53;;;;;;;;;17.00;11.60;;;;;6.50;96.48;100181.59;6778047;19;2797050;-53
2021/09/21 01:31:22;;;;;;;;;19.33;16.33;;;;;6.45;96.25;100180.91;6748779;19;2817951;-54
2021/09/21 01:33:52;;;;;;;;;14.00;13.00;;;;;6.51;95.86;100185.13;6782920;19;2783545;-51
2021/09/21 01:36:23;;;;;;;;;19.00;14.00;;;;;6.73;95.01;100191.41;6756256;19;2807498;-54
2021/09/21 01:38:51;;;;;;;;;15.67;13.00;;;;;6.84;94.24;100192.78;6743104;19;2789825;-54
2021/09/21 01:41:21;;;;;;;;;17.33;16.67;;;;;7.05;93.77;100186.63;6784117;19;3563761;-53
2021/09/21 01:43:50;;;;;;;;;17.60;14.80;;;;;7.29;92.69;100186.59;6808878;19;2813752;-55
2021/09/21 01:46:23;;;;;;;;;15.60;15.00;;;;;7.13;93.31;100189.84;6777980;19;2809577;-49
2021/09/21 01:48:51;;;;;;;;;16.00;14.00;;;;;7.27;93.82;100192.00;6749147;19;2793634;-55
2021/09/21 01:51:29;;;;;;;;;13.20;10.60;;;;;7.49;93.10;100192.00;6780089;19;2779374;-54
2021/09/21 01:54:17;;;;;;;;;15.00;14.00;;;;;7.43;93.30;100194.94;6747053;19;2793917;-53
2021/09/21 01:59:31;;;;;;;;;12.00;11.00;;;;;7.72;92.28;100192.88;6748725;19;2782455;-48
2021/09/21 02:01:59;;;;;;;;;11.00;11.00;;;;;7.81;91.77;100193.31;6750229;19;2789775;-50
2021/09/21 02:04:27;;;;;;;;;11.00;11.00;;;;;7.86;91.30;100191.34;6759158;19;2788729;-52
2021/09/21 02:06:56;;;;;;;;;17.33;12.67;;;;;7.97;91.17;100193.53;6747868;19;2804338;-50
2021/09/21 02:09:23;;;;;;;;;15.00;12.00;;;;;8.06;90.03;100198.50;6781800;19;2786626;-51
2021/09/21 02:11:51;;;;;;;;;10.50;10.00;;;;;8.13;90.52;100199.97;6748896;19;2787664;-53
2021/09/21 02:14:22;;;;;;;;;12.40;11.20;;;;;8.14;90.22;100201.72;6775061;19;2798116;-48
2021/09/21 02:16:54;;;;;;;;;12.33;12.00;;;;;8.26;89.82;100210.16;6749066;19;2791851;-51
2021/09/21 02:19:24;;;;;;;;;13.33;13.33;;;;;8.33;90.14;100209.81;6780523;19;3533472;-49
2021/09/21 02:21:53;;;;;;;;;12.00;11.50;;;;;8.63;88.67;100219.25;6780665;19;2778412;-51
2021/09/21 02:24:22;;;;;;;;;12.00;12.00;;;;;8.41;89.43;100220.22;6748053;19;2789787;-52
2021/09/21 02:26:51;;;;;;;;;15.00;15.00;;;;;8.41;89.13;100214.84;6754975;19;2794971;-52
2021/09/21 02:29:20;;;;;;;;;17.60;12.40;;;;;8.73;88.36;100215.22;6779837;19;2798239;-54
2021/09/21 02:31:49;;;;;;;;;17.33;12.67;;;;;8.34;89.43;100213.34;6747235;19;2810646;-54
2021/09/21 02:34:17;;;;;;;;;14.67;12.67;;;;;8.53;89.70;100219.69;6783435;19;3534543;-49
2021/09/21 02:36:46;;;;;;;;;14.67;14.33;;;;;8.62;89.07;100225.56;6778786;19;3542853;-51
2021/09/21 02:39:14;;;;;;;;;14.00;14.00;;;;;8.36;89.87;100222.19;6785330;19;2810584;-50
2021/09/21 02:41:42;;;;;;;;;17.67;13.67;;;;;8.33;90.02;100222.31;6749042;19;2803296;-51
2021/09/21 02:44:11;;;;;;;;;19.33;14.00;;;;;8.49;90.56;100227.91;6781537;19;3539828;-49
2021/09/21 02:46:39;;;;;;;;;17.67;12.00;;;;;8.31;89.82;100219.69;6779940;19;3541896;-52
2021/09/21 02:49:08;;;;;;;;;17.00;15.33;;;;;8.33;89.88;100233.03;6779740;19;3532526;-49
2021/09/21 02:51:36;;;;;;;;;15.00;15.00;;;;;8.27;90.19;100235.97;6778890;19;3530346;-52
2021/09/21 02:54:04;;;;;;;;;18.67;15.00;;;;;8.18;90.80;100244.38;6779660;19;2806502;-52
2021/09/21 02:56:33;;;;;;;;;16.00;15.00;;;;;8.30;90.10;100238.53;6781807;19;2807503;-53
2021/09/21 02:59:01;;;;;;;;;18.00;12.33;;;;;8.18;91.15;100247.06;6779992;19;3524132;-50
2021/09/21 03:01:29;;;;;;;;;13.00;12.00;;;;;8.18;91.29;100247.91;6778735;19;2786669;-53
2021/09/21 03:04:02;;;;;;;;;17.00;14.00;;;;;8.11;91.96;100250.00;6778489;19;2805432;-51
2021/09/21 03:06:37;;;;;;;;;17.17;13.33;;;;;8.13;91.61;100253.47;6808350;19;2818956;-52
2021/09/21 03:09:24;;;;;;;;;14.60;10.60;;;;;8.13;91.48;100250.78;6808467;19;2787688;-48
2021/09/21 03:12:00;;;;;;;;;15.00;15.00;;;;;8.26;91.65;100244.91;6748250;19;2791834;-48
2021/09/21 03:17:19;;;;;;;;;16.50;13.50;;;;;7.98;91.87;100254.13;6747716;19;2798088;-49
2021/09/21 03:19:47;;;;;;;;;14.00;11.00;;;;;8.01;92.00;100259.34;6749714;19;2789858;-48
2021/09/21 03:22:15;;;;;;;;;14.00;12.00;;;;;7.81;92.57;100256.63;6748273;19;2787739;-49
2021/09/21 03:24:43;;;;;;;;;11.33;11.33;;;;;7.97;92.38;100264.88;6777056;19;2787668;-54
2021/09/21 03:27:12;;;;;;;;;15.00;15.00;;;;;7.81;93.06;100261.97;6780533;19;3518924;-55
2021/09/21 03:29:40;;;;;;;;;8.50;8.50;;;;;7.70;93.67;100263.28;6803583;19;1814848;-55
2021/09/21 03:32:09;;;;;;;;;17.33;16.33;;;;;7.56;94.21;100256.75;6779420;19;3543888;-51
2021/09/21 03:34:38;;;;;;;;;16.67;12.67;;;;;7.53;94.67;100265.78;6780270;19;2794963;-53
2021/09/21 03:37:09;;;;;;;;;15.67;14.00;;;;;7.41;94.61;100267.09;6778738;19;3540767;-50
2021/09/21 03:39:38;;;;;;;;;12.00;12.00;;;;;7.28;94.60;100270.31;6780458;19;2787739;-52
2021/09/21 03:42:06;;;;;;;;;13.00;11.00;;;;;7.28;95.14;100262.31;6748135;19;2787676;-52
2021/09/21 03:44:34;;;;;;;;;15.00;13.50;;;;;7.13;95.98;100263.75;6744444;19;2787663;-53
2021/09/21 03:47:02;;;;;;;;;14.00;13.00;;;;;7.21;95.17;100270.56;6747275;19;2788792;-51
2021/09/21 03:49:31;;;;;;;;;15.40;13.60;;;;;7.01;96.13;100270.44;6777576;19;2803323;-49
2021/09/21 03:51:59;;;;;;;;;15.67;12.33;;;;;6.96;96.27;100267.06;6745447;19;2797115;-49
2021/09/21 03:54:28;;;;;;;;;13.00;13.00;;;;;6.98;97.01;100266.09;6778926;19;2789781;-49
2021/09/21 03:56:57;;;;;;;;;20.00;19.20;;;;;7.32;95.78;100270.16;6807980;19;2830375;-50
2021/09/21 03:59:26;;;;;;;;;17.33;14.00;;;;;7.17;94.97;100276.06;6745451;19;3529305;-50
2021/09/21 04:01:54;;;;;;;;;18.33;15.33;;;;;6.86;95.95;100274.53;6778525;19;3551205;-48
2021/09/21 04:04:23;;;;;;;;;21.00;12.67;;;;;6.96;96.56;100261.75;6780250;19;3542850;-49
2021/09/21 04:06:52;;;;;;;;;13.80;13.20;;;;;6.75;96.97;100274.94;6808741;19;2789754;-49
2021/09/21 04:09:20;;;;;;;;;14.33;13.67;;;;;6.84;96.85;100272.84;6745447;19;3523090;-51
2021/09/21 04:11:48;;;;;;;;;14.33;12.33;;;;;6.81;96.59;100280.03;6778333;19;3535583;-51
2021/09/21 04:14:17;;;;;;;;;17.33;14.00;;;;;6.97;96.64;100276.81;6776176;19;3535542;-55
2021/09/21 04:16:45;;;;;;;;;11.00;10.00;;;;;6.93;95.62;100273.41;6778090;19;2777256;-54
2021/09/21 04:19:12;;;;;;;;;15.50;13.00;;;;;6.76;96.69;100279.34;6747508;19;2790785;-52
2021/09/21 04:21:40;;;;;;;;;18.00;14.50;;;;;6.70;96.83;100284.03;6750302;19;2812703;-53
2021/09/21 04:24:08;;;;;;;;;22.33;18.67;;;;;6.76;97.97;100284.69;6745900;19;3560653;-51
2021/09/21 04:26:38;;;;;;;;;68.00;53.67;;;;;6.95;97.11;100281.34;6775982;19;3624101;-49
2021/09/21 04:29:06;;;;;;;;;34.00;30.50;;;;;7.01;96.18;100289.13;6777013;19;2856422;-53
2021/09/21 04:31:38;;;;;;;;;23.50;21.00;;;;;7.36;94.54;100292.25;6741317;19;2836629;-51
2021/09/21 04:34:06;;;;;;;;;23.33;20.00;;;;;7.06;95.57;100294.28;6743467;19;3572011;-52
2021/09/21 04:36:34;;;;;;;;;24.50;17.00;;;;;7.02;95.16;100298.88;6748424;19;2840867;-54
2021/09/21 04:39:03;;;;;;;;;16.00;14.00;;;;;7.06;95.65;100286.28;6744513;19;2796028;-51
2021/09/21 04:41:30;;;;;;;;;14.00;12.00;;;;;7.18;95.34;100293.84;6780244;19;2786662;-49
2021/09/21 04:43:59;;;;;;;;;17.33;13.67;;;;;7.13;95.09;100302.00;6746088;19;2799249;-51
2021/09/21 04:46:27;;;;;;;;;16.33;13.33;;;;;7.33;94.53;100303.94;6784083;19;2792872;-48
2021/09/21 04:48:56;;;;;;;;;19.33;13.00;;;;;7.18;94.51;100302.72;6781759;19;3559587;-51
2021/09/21 04:51:23;;;;;;;;;16.50;15.00;;;;;7.32;94.71;100302.22;6787580;19;2812416;-51
2021/09/21 04:53:52;;;;;;;;;14.33;14.33;;;;;7.03;94.98;100297.97;6749148;19;3512671;-53
2021/09/21 04:56:19;;;;;;;;;16.50;14.00;;;;;7.10;95.49;100302.13;6786117;19;2798116;-51
2021/09/21 04:58:47;;;;;;;;;16.50;15.00;;;;;7.15;95.70;100300.16;6755534;19;2808504;-52
2021/09/21 05:01:15;;;;;;;;;18.67;15.33;;;;;7.26;94.73;100303.28;6749796;19;3551186;-51
2021/09/21 05:03:43;;;;;;;;;18.00;16.50;;;;;7.40;94.99;100307.25;6787262;19;2839749;-50
2021/09/21 05:06:11;;;;;;;;;16.00;16.00;;;;;7.26;95.22;100308.63;6750546;19;2800207;-53
2021/09/21 05:08:40;;;;;;;;;19.67;16.00;;;;;7.61;93.83;100301.06;6783470;19;3543923;-50
2021/09/21 05:11:09;;;;;;;;;19.67;15.00;;;;;7.86;93.20;100311.63;6782682;19;3542859;-51
2021/09/21 05:13:38;;;;;;;;;14.67;13.00;;;;;8.01;91.76;100318.19;6784285;19;2794995;-49
2021/09/21 05:16:06;;;;;;;;;19.00;15.00;;;;;8.19;90.75;100321.00;6782715;19;3552233;-52
2021/09/21 05:18:34;;;;;;;;;16.50;11.00;;;;;8.31;90.49;100325.84;6787710;19;2796005;-51
2021/09/21 05:21:02;;;;;;;;;17.33;15.00;;;;;8.48;89.42;100336.75;6746373;19;3547084;-51
2021/09/21 05:23:30;;;;;;;;;10.00;10.00;;;;;8.66;88.27;100332.44;6783900;19;2773120;-52
2021/09/21 05:25:59;;;;;;;;;14.60;12.80;;;;;8.89;87.41;100349.28;6783935;19;2794325;-50
2021/09/21 05:28:27;;;;;;;;;13.50;11.00;;;;;8.86;88.33;100344.94;6749014;19;2777311;-52
2021/09/21 05:30:55;;;;;;;;;15.33;12.00;;;;;9.40;85.80;100351.44;6749686;19;3520002;-50
2021/09/21 05:33:26;;;;;;;;;16.67;13.67;;;;;9.36;85.47;100354.31;6782139;19;3537642;-54
2021/09/21 05:35:55;;;;;;;;;17.40;15.00;;;;;9.39;85.21;100360.41;6808054;19;2798088;-51
2021/09/21 05:38:25;;;;;;;;;12.40;10.80;;;;;9.79;83.38;100363.91;6778964;19;2784539;-54
2021/09/21 05:40:53;;;;;;;;;6.00;4.25;;;;;9.48;83.78;100363.59;6773657;19;1816935;-53
2021/09/21 05:43:22;;;;;;;;;13.00;10.00;;;;;9.78;83.43;100369.34;6781292;19;2789807;-56
2021/09/21 05:45:50;;;;;;;;;17.00;14.00;;;;;9.84;82.54;100369.91;6780929;19;3522113;-53
2021/09/21 05:48:19;;;;;;;;;29.33;29.33;;;;;10.28;81.17;100372.28;6779155;19;2848102;-55
2021/09/21 05:50:48;;;;;;;;;43.50;34.00;;;;;10.47;80.40;100366.88;6783372;19;2853298;-52
2021/09/21 05:53:15;;;;;;;;;15.00;14.00;;;;;10.37;79.94;100379.00;6746248;19;2795997;-53
2021/09/21 05:55:43;;;;;;;;;10.50;10.00;;;;;10.80;77.12;100368.81;6747502;19;2787707;-56
2021/09/21 05:58:10;;;;;;;;;14.00;9.50;;;;;11.24;75.94;100381.72;6747212;19;2779375;-56
2021/09/21 06:00:38;;;;;;;;;10.50;10.50;;;;;11.20;75.82;100377.47;6748965;19;2772052;-54
2021/09/21 06:03:06;;;;;;;;;9.50;9.50;;;;;10.97;76.32;100376.84;6752461;19;2771002;-54
2021/09/21 06:05:34;;;;;;;;;14.50;10.00;;;;;11.09;76.62;100391.47;6748211;19;2786622;-56
2021/09/21 06:08:03;;;;;;;;;9.25;8.25;;;;;10.95;76.57;100399.38;6768129;19;1805491;-55
2021/09/21 06:10:31;;;;;;;;;8.50;8.50;;;;;10.73;76.67;100396.91;6789334;19;2731495;-53
2021/09/21 06:12:58;;;;;;;;;9.50;9.00;;;;;10.47;77.31;100398.22;6753542;19;2738716;-55
2021/09/21 06:15:25;;;;;;;;;12.50;11.00;;;;;10.80;77.04;100394.81;6751669;19;2781418;-57
2021/09/21 06:17:53;;;;;;;;;10.00;7.00;;;;;10.70;76.48;100407.81;6748298;19;2754340;-49
2021/09/21 06:20:21;;;;;;;;;7.00;7.00;;;;;10.61;76.62;100403.78;6753870;19;2746043;-54
2021/09/21 06:22:49;;;;;;;;;12.00;7.00;;;;;10.63;76.95;100407.25;6751774;19;2766839;-51
2021/09/21 06:25:17;;;;;;;;;7.00;7.00;;;;;10.62;76.52;100407.34;6750027;19;2742878;-56
2021/09/21 06:27:46;;;;;;;;;14.50;8.00;;;;;10.92;75.99;100410.28;6745041;19;2779331;-55
2021/09/21 06:30:16;;;;;;;;;9.00;9.00;;;;;10.83;76.22;100417.00;6751363;19;2743927;-52
2021/09/21 06:32:44;;;;;;;;;9.50;9.50;;;;;11.13;75.60;100425.28;6753741;19;2756431;-55
2021/09/21 06:35:12;;;;;;;;;8.00;8.00;;;;;11.00;76.65;100418.81;6751095;19;2741862;-57
2021/09/21 06:37:39;;;;;;;;;8.50;8.50;;;;;11.11;75.85;100435.28;6749471;19;2750209;-54
2021/09/21 06:40:10;;;;;;;;;5.25;4.00;;;;;11.25;75.05;100437.22;6770310;19;1808555;-54
2021/09/21 06:42:41;;;;;;;;;9.00;9.00;;;;;11.21;74.68;100441.00;6784076;19;2757465;-56
2021/09/21 06:45:12;;;;;;;;;10.00;9.00;;;;;11.21;74.75;100439.19;6750282;19;2750169;-54
2021/09/21 06:47:43;;;;;;;;;10.00;9.00;;;;;11.19;74.88;100437.56;6750560;19;2746038;-53
2021/09/21 06:50:13;;;;;;;;;8.00;8.00;;;;;11.52;74.26;100442.97;6750691;19;2729372;-54
2021/09/21 06:52:40;;;;;;;;;9.50;7.00;;;;;11.64;73.32;100439.63;6746899;19;2756455;-54
2021/09/21 06:55:09;;;;;;;;;8.00;7.50;;;;;11.68;73.04;100445.69;6748422;19;2730378;-54
2021/09/21 06:57:38;;;;;;;;;7.00;7.00;;;;;11.90;71.95;100445.44;6749537;19;2739745;-54
2021/09/21 07:00:10;;;;;;;;;9.00;7.00;;;;;11.99;71.35;100442.22;6749184;19;2746015;-55
2021/09/21 07:02:40;;;;;;;;;9.80;7.60;;;;;11.80;71.65;100457.63;6776294;19;2743920;-54
2021/09/21 07:05:09;;;;;;;;;7.00;7.00;;;;;11.62;72.28;100465.72;6788951;19;2733523;-56
2021/09/21 07:07:45;;;;;;;;;8.00;7.00;;;;;11.79;71.80;100469.31;6748121;19;2746007;-55
2021/09/21 07:10:20;;;;;;;;;7.86;7.43;;;;;11.97;70.96;100465.66;6795435;19;3441809;-55
2021/09/21 07:12:48;;;;;;;;;7.50;7.00;;;;;12.21;69.78;100467.94;6781637;19;2743927;-56
2021/09/21 07:15:22;;;;;;;;;7.00;7.00;;;;;11.89;70.73;100478.66;6767590;19;1808644;-53
2021/09/21 07:17:56;;;;;;;;;7.00;6.00;;;;;12.15;69.76;100473.69;6783605;19;2736666;-50
2021/09/21 07:20:26;;;;;;;;;8.00;8.00;;;;;11.95;69.57;100483.72;6750583;19;2736632;-54
2021/09/21 07:22:54;;;;;;;;;6.00;6.00;;;;;11.87;70.08;100494.03;6751096;19;2739753;-53
2021/09/21 07:25:23;;;;;;;;;9.50;6.00;;;;;12.19;69.92;100492.28;6750842;19;2739785;-52
2021/09/21 07:27:54;;;;;;;;;7.00;7.00;;;;;12.00;69.96;100503.16;6749401;19;2742902;-51
2021/09/21 07:30:22;;;;;;;;;8.00;6.00;;;;;11.81;69.90;100497.03;6751071;19;2729360;-50
2021/09/21 07:32:49;;;;;;;;;8.00;7.00;;;;;11.94;70.26;100500.81;6748512;19;2736654;-54
2021/09/21 07:35:17;;;;;;;;;3.50;3.00;;;;;11.89;70.20;100505.59;6749308;19;2737678;-55
2021/09/21 07:37:44;;;;;;;;;7.00;7.00;;;;;11.93;69.92;100512.56;6749275;19;2739749;-53
2021/09/21 07:40:13;;;;;;;;;11.00;7.00;;;;;11.75;71.02;100513.50;6748242;19;2757516;-51
2021/09/21 07:42:41;;;;;;;;;10.00;7.50;;;;;12.22;69.52;100524.41;6748478;19;2762051;-53
2021/09/21 07:45:09;;;;;;;;;10.00;7.50;;;;;11.67;70.91;100526.50;6751737;19;2751257;-53
2021/09/21 07:47:37;;;;;;;;;12.00;8.00;;;;;11.92;70.47;100526.06;6749063;19;2766831;-53
2021/09/21 07:50:11;;;;;;;;;14.00;9.40;;;;;11.76;70.88;100515.22;6774795;19;2787680;-53
2021/09/21 07:52:39;;;;;;;;;7.50;7.50;;;;;12.03;70.02;100524.56;6747857;19;2734561;-54
2021/09/21 07:55:11;;;;;;;;;11.57;10.00;;;;;12.16;69.81;100526.56;6790927;19;1798571;-54
2021/09/21 07:57:40;;;;;;;;;12.00;6.50;;;;;12.09;69.88;100528.75;6785059;19;2756423;-56
2021/09/21 08:00:11;;;;;;;;;8.00;8.00;;;;;12.47;69.24;100526.59;6748145;19;2746040;-51
2021/09/21 08:02:41;;;;;;;;;7.20;7.20;;;;;12.46;69.62;100530.28;6775362;19;2739786;-55
2021/09/21 08:05:10;;;;;;;;;9.00;8.00;;;;;12.11;70.39;100544.78;6782941;19;2739761;-54
2021/09/21 08:07:40;;;;;;;;;8.50;7.50;;;;;11.94;69.96;100535.81;6748604;19;2737674;-54
2021/09/21 08:10:11;;;;;;;;;9.00;9.00;;;;;12.21;69.63;100543.34;6747277;19;2743923;-54
2021/09/21 08:12:40;;;;;;;;;8.50;8.00;;;;;12.52;70.14;100535.31;6747392;19;2747060;-53
2021/09/21 08:15:09;;;;;;;;;8.00;8.00;;;;;12.56;69.55;100538.72;6746800;19;2743932;-56
2021/09/21 08:17:37;;;;;;;;;12.50;9.00;;;;;12.57;68.42;100542.28;6741887;19;2759572;-54
2021/09/21 08:20:06;;;;;;;;;9.00;7.00;;;;;12.83;67.92;100541.66;6749316;19;2746026;-52
2021/09/21 08:22:33;;;;;;;;;7.00;7.00;;;;;12.70;68.10;100551.41;6752399;19;2746034;-53
2021/09/21 08:25:07;;;;;;;;;9.71;7.86;;;;;12.74;68.10;100548.44;6795063;19;3451183;-54
2021/09/21 08:27:37;;;;;;;;;10.00;7.00;;;;;12.85;67.50;100542.44;6781791;19;2747041;-54
2021/09/21 08:30:25;;;;;;;;;7.00;7.00;;;;;13.16;66.32;100544.25;6752122;19;2741845;-53
2021/09/21 08:32:52;;;;;;;;;6.00;6.00;;;;;12.96;66.67;100545.38;6748356;19;2742922;-55
2021/09/21 08:35:20;;;;;;;;;7.50;7.50;;;;;12.55;68.30;100541.47;6747788;19;2739757;-54
2021/09/21 08:37:47;;;;;;;;;8.00;7.00;;;;;13.26;66.84;100543.69;6749152;19;2746011;-52
2021/09/21 08:40:15;;;;;;;;;7.50;7.00;;;;;12.89;66.65;100544.00;6748576;19;2740803;-54
2021/09/21 08:42:43;;;;;;;;;7.00;7.00;;;;;13.41;65.92;100539.25;6748914;19;2741884;-53
2021/09/21 08:45:11;;;;;;;;;10.50;9.00;;;;;13.07;66.75;100538.50;6750554;19;2759583;-53
2021/09/21 08:47:40;;;;;;;;;8.00;7.00;;;;;13.78;65.17;100544.16;6747683;19;2741837;-53
2021/09/21 08:50:10;;;;;;;;;7.00;7.00;;;;;13.73;64.55;100540.88;6745576;19;2740485;-50
2021/09/21 08:52:42;;;;;;;;;8.50;8.50;;;;;13.49;64.34;100545.06;6748406;19;2733503;-55
2021/09/21 08:55:12;;;;;;;;;8.00;7.00;;;;;13.84;64.42;100545.59;6747706;19;2742886;-55
2021/09/21 08:57:41;;;;;;;;;8.00;8.00;;;;;13.70;65.00;100541.06;6746068;19;2739745;-54
2021/09/21 09:00:19;;;;;;;;;9.00;8.00;;;;;13.33;64.84;100540.56;6747699;19;2730429;-55
2021/09/21 09:02:47;;;;;;;;;7.50;7.00;;;;;14.03;63.97;100545.31;6748109;19;2731452;-55
2021/09/21 09:05:15;;;;;;;;;9.50;8.50;;;;;13.73;63.39;100548.09;6750118;19;2750181;-55
2021/09/21 09:07:54;;;;;;;;;9.00;9.00;;;;;14.06;63.68;100547.88;6747586;19;2754363;-53
2021/09/21 09:10:23;;;;;;;;;8.50;8.50;;;;;14.04;63.95;100541.69;6749875;19;2734565;-56
2021/09/21 09:12:51;;;;;;;;;9.00;9.00;;;;;14.33;63.27;100547.09;6751956;19;2735615;-57
2021/09/21 09:15:25;;;;;;;;;10.00;10.00;;;;;14.31;63.14;100544.47;6798080;19;1799162;-54
2021/09/21 09:17:55;;;;;;;;;8.50;8.00;;;;;13.73;64.58;100542.69;6784146;19;2731460;-57
2021/09/21 09:20:40;;;;;;;;;9.00;8.00;;;;;14.14;63.88;100542.84;6750535;19;2741876;-57
2021/09/21 09:23:10;;;;;;;;;13.33;12.67;;;;;13.76;64.13;100543.38;6743518;19;2788768;-56
2021/09/21 09:25:48;;;;;;;;;24.50;21.50;;;;;14.05;63.10;100554.22;6778007;19;2848081;-54
2021/09/21 09:28:20;;;;;;;;;14.33;13.33;;;;;14.15;62.63;100549.97;6742825;19;3509522;-56
2021/09/21 09:30:48;;;;;;;;;10.50;9.50;;;;;14.54;61.72;100553.84;6785090;19;2771028;-57
2021/09/21 09:33:17;;;;;;;;;6.00;6.00;;;;;14.67;61.06;100556.63;6760583;19;2732454;-57
2021/09/21 09:35:47;;;;;;;;;10.00;8.00;;;;;15.13;60.17;100565.28;6754886;19;2771010;-58
2021/09/21 09:38:20;;;;;;;;;8.50;7.50;;;;;14.82;60.69;100555.63;6755306;19;2736624;-57
2021/09/21 09:40:55;;;;;;;;;10.00;8.50;;;;;14.57;61.67;100556.34;6755679;19;2761631;-57
2021/09/21 09:43:27;;;;;;;;;8.00;8.00;;;;;14.93;60.17;100557.66;6757783;19;2727270;-55
2021/09/21 09:45:57;;;;;;;;;9.00;9.00;;;;;14.84;60.49;100563.63;6758336;19;2740799;-54
2021/09/21 09:48:26;;;;;;;;;8.00;8.00;;;;;14.28;62.69;100567.16;6754354;19;2741845;-56
2021/09/21 09:50:57;;;;;;;;;10.00;8.20;;;;;14.91;60.29;100564.97;6781564;19;2756411;-56
2021/09/21 09:53:27;;;;;;;;;7.50;7.50;;;;;14.78;61.41;100561.34;6755103;19;2736636;-54
2021/09/21 09:55:58;;;;;;;;;8.50;7.00;;;;;14.93;60.96;100565.75;6754217;19;2744318;-56
2021/09/21 09:58:26;;;;;;;;;9.00;9.00;;;;;14.58;61.74;100566.19;6752600;19;2745999;-57
2021/09/21 10:00:54;;;;;;;;;7.00;7.00;;;;;14.42;61.55;100568.97;6756162;19;2735702;-57
2021/09/21 10:03:25;;;;;;;;;7.50;7.50;;;;;15.40;59.29;100568.94;6776179;19;1793937;-57
2021/09/21 10:05:55;;;;;;;;;9.00;9.00;;;;;14.89;59.08;100572.31;6791387;19;2743958;-57
2021/09/21 10:08:24;;;;;;;;;8.80;7.80;;;;;15.38;58.86;100569.06;6781668;19;2738715;-57
2021/09/21 10:10:52;;;;;;;;;7.00;7.00;;;;;15.05;60.29;100573.03;6790406;19;2746034;-57
2021/09/21 10:13:19;;;;;;;;;8.33;7.00;;;;;15.23;60.55;100570.09;6754699;19;3462644;-57
2021/09/21 10:15:50;;;;;;;;;7.50;7.00;;;;;15.35;58.67;100569.28;6754882;19;2743916;-57
2021/09/21 10:18:21;;;;;;;;;8.50;8.00;;;;;15.68;59.12;100567.94;6771181;19;1791866;-55
2021/09/21 10:21:01;;;;;;;;;9.20;8.00;;;;;15.12;59.78;100560.84;6817197;19;2735594;-56
2021/09/21 10:23:42;;;;;;;;;7.00;7.00;;;;;15.36;57.15;100557.47;6784813;19;2745995;-58
2021/09/21 10:26:18;;;;;;;;;4.00;4.00;;;;;15.57;56.40;100565.97;6755555;19;2743915;-58
2021/09/21 10:28:51;;;;;;;;;7.00;7.00;;;;;16.06;55.83;100567.13;6756714;19;2735583;-57
2021/09/21 10:31:21;;;;;;;;;10.00;8.00;;;;;15.82;56.77;100558.91;6758332;19;2747071;-57
2021/09/21 10:33:50;;;;;;;;;8.00;7.00;;;;;15.58;57.84;100560.44;6758015;19;2740795;-58
2021/09/21 10:36:24;;;;;;;;;8.50;7.00;;;;;15.63;56.99;100568.25;6758678;19;2746027;-56
2021/09/21 10:39:10;;;;;;;;;7.00;7.00;;;;;15.78;57.48;100560.97;6756252;19;2738751;-57
2021/09/21 10:41:58;;;;;;;;;7.50;7.50;;;;;15.58;56.24;100560.44;6758058;19;2743908;-56
2021/09/21 10:44:28;;;;;;;;;8.00;7.50;;;;;15.75;58.73;100550.34;6757748;19;2751219;-54
2021/09/21 10:46:58;;;;;;;;;8.50;8.00;;;;;15.55;56.91;100557.94;6754236;19;2738707;-57
2021/09/21 10:49:40;;;;;;;;;9.00;8.00;;;;;16.11;55.25;100563.13;6759038;19;2735603;-58
2021/09/21 10:52:19;;;;;;;;;8.00;8.00;;;;;16.25;54.98;100564.88;6757703;19;2733488;-58
2021/09/21 10:54:53;;;;;;;;;8.50;7.00;;;;;16.11;55.74;100556.84;6757867;19;2743912;-58
2021/09/21 10:57:38;;;;;;;;;8.00;7.00;;;;;15.26;55.88;100564.47;6753317;19;2732465;-57
2021/09/21 11:00:20;;;;;;;;;9.00;9.00;;;;;15.43;55.63;100556.09;6755862;19;2736624;-56
2021/09/21 11:02:52;;;;;;;;;8.00;7.00;;;;;16.16;54.55;100549.25;6751960;19;2740790;-57
2021/09/21 11:05:29;;;;;;;;;10.00;7.00;;;;;16.17;54.46;100545.59;6753122;19;2751211;-56
2021/09/21 11:08:01;;;;;;;;;8.00;7.50;;;;;16.73;53.47;100553.31;6749608;19;2749140;-56
2021/09/21 11:10:38;;;;;;;;;9.00;6.00;;;;;15.52;54.72;100549.19;6751401;19;2739753;-57
2021/09/21 11:13:15;;;;;;;;;8.14;5.57;;;;;15.88;54.44;100544.94;6804663;19;3454300;-57
2021/09/21 11:15:45;;;;;;;;;9.00;7.50;;;;;16.46;53.78;100535.38;6786314;19;2750269;-56
2021/09/21 11:18:19;;;;;;;;;9.00;9.00;;;;;17.09;52.66;100537.06;6756985;19;2741860;-56
2021/09/21 11:21:19;;;;;;;;;5.50;5.50;;;;;17.14;51.03;100542.13;6758551;19;2742874;-56
2021/09/21 11:23:46;;;;;;;;;7.00;6.00;;;;;16.73;52.01;100529.75;6757224;19;2737708;-56